Time;durP1;ratioP1;P1;durP2;ratioP2;P2;SDS_P1;SDS_P2;PMS_P1;PMS_P2;Temp;Humidity;BMP_temperature;BMP_pressure;BME280_temperature;BME280_humidity;BME280_pressure;Samples;Min_cycle;Max_cycle;Signal;HPM_P1;HPM_P2
2024/01/04 00:02:05;;;;;;;3.80;1.33;;;;;;;9.37;88.21;97507.75;7256771;39;20261;31
2024/01/04 00:07:41;;;;;;;3.70;1.20;;;;;;;9.34;89.10;97512.69;7245053;39;20340;31
2024/01/04 00:13:17;;;;;;;4.73;1.67;;;;;;;9.31;89.37;97540.78;7177161;40;20394;31
2024/01/04 00:18:49;;;;;;;2.93;1.23;;;;;;;9.30;88.97;97516.81;7141009;40;20263;31
2024/01/04 00:29:26;;;;;;;3.60;1.30;;;;;;;9.27;89.42;97525.25;7218876;39;21297;31
2024/01/04 00:39:47;;;;;;;2.15;0.93;;;;;;;9.30;90.84;97546.41;7269009;39;21251;31
2024/01/04 00:50:26;;;;;;;4.25;1.55;;;;;;;9.16;92.60;97555.41;7309499;39;21350;31
2024/01/04 01:01:03;;;;;;;3.00;1.20;;;;;;;9.11;93.56;97549.78;7304060;39;21393;31
2024/01/04 01:06:38;;;;;;;4.50;1.70;;;;;;;9.09;93.86;97551.84;7238612;40;20412;31
2024/01/04 01:11:59;;;;;;;3.63;1.30;;;;;;;9.14;93.79;97560.13;7149621;40;20321;31
2024/01/04 01:17:33;;;;;;;5.00;1.60;;;;;;;9.11;93.08;97556.00;7141900;40;20255;31
2024/01/04 01:23:09;;;;;;;3.00;1.30;;;;;;;9.14;92.42;97562.81;7139284;40;20327;31
2024/01/04 01:28:44;;;;;;;3.50;1.13;;;;;;;9.14;92.31;97562.81;7184974;40;20340;31
2024/01/04 01:39:21;;;;;;;5.42;1.60;;;;;;;9.16;91.60;97568.84;7254324;40;21252;31
2024/01/04 01:44:42;;;;;;;5.70;1.40;;;;;;;9.18;91.31;97578.34;7194435;40;20359;31
2024/01/04 01:55:20;;;;;;;4.00;1.10;;;;;;;9.18;90.98;97585.59;7283160;39;21593;31
2024/01/04 02:05:42;;;;;;;2.56;1.20;;;;;;;9.15;90.67;97615.56;7304429;39;21407;31
2024/01/04 02:11:19;;;;;;;2.50;1.10;;;;;;;9.14;90.86;97620.09;7298527;39;20361;31
2024/01/04 02:21:41;;;;;;;3.10;1.20;;;;;;;9.21;90.44;97625.53;7337962;39;21414;31
2024/01/04 02:27:16;;;;;;;5.25;1.70;;;;;;;9.16;91.09;97644.09;7249421;40;20293;31
2024/01/04 02:37:55;;;;;;;3.80;1.30;;;;;;;9.14;91.79;97667.66;7274025;40;20362;31
2024/01/04 02:48:31;;;;;;;3.40;1.10;;;;;;;9.07;92.79;97682.91;7255961;40;21324;31
2024/01/04 02:54:04;;;;;;;2.35;1.30;;;;;;;9.09;93.15;97688.91;7241408;40;20329;31
2024/01/04 02:59:39;;;;;;;4.20;1.40;;;;;;;9.03;93.76;97698.59;7230060;40;20241;31
2024/01/04 03:05:16;;;;;;;3.45;1.20;;;;;;;9.04;93.04;97694.84;7237123;40;20253;31
2024/01/04 03:10:51;;;;;;;4.10;1.30;;;;;;;9.01;93.42;97696.09;7224247;40;20403;31
2024/01/04 03:16:26;;;;;;;3.40;1.30;;;;;;;9.00;93.63;97689.03;7225478;40;20285;31
2024/01/04 03:27:03;;;;;;;2.50;1.20;;;;;;;9.00;93.76;97694.41;7272432;39;21352;31
2024/01/04 03:32:39;;;;;;;4.37;1.50;;;;;;;8.99;94.08;97682.00;7256644;40;20260;31
2024/01/04 03:37:58;;;;;;;3.20;1.43;;;;;;;8.99;93.92;97702.69;7217080;40;20247;31
2024/01/04 03:43:35;;;;;;;6.37;1.30;;;;;;;8.96;94.08;97720.00;7203941;40;20313;31
2024/01/04 03:48:55;;;;;;;3.10;1.40;;;;;;;8.99;94.45;97713.44;7186052;40;20253;31
2024/01/04 03:54:31;;;;;;;6.93;1.83;;;;;;;9.01;94.07;97722.97;7216710;40;20264;31
2024/01/04 04:00:07;;;;;;;5.27;1.50;;;;;;;8.97;94.31;97726.22;7137529;40;20298;31
2024/01/04 04:05:44;;;;;;;8.30;1.80;;;;;;;8.95;94.19;97733.66;7185754;40;20262;31
2024/01/04 04:11:15;;;;;;;7.60;1.73;;;;;;;8.95;94.26;97739.84;7220060;40;20253;31
2024/01/04 04:16:56;;;;;;;4.80;1.40;;;;;;;8.94;93.87;97758.84;7203686;40;20279;31
2024/01/04 04:22:31;;;;;;;3.97;1.50;;;;;;;8.91;94.08;97762.75;7164364;40;20330;31
2024/01/04 04:28:06;;;;;;;4.37;1.30;;;;;;;8.90;94.28;97766.47;7161216;40;20263;31
2024/01/04 04:33:39;;;;;;;3.80;1.20;;;;;;;8.90;94.52;97774.53;7206486;40;21258;31
2024/01/04 04:39:14;;;;;;;4.70;1.30;;;;;;;8.89;94.99;97772.03;7202618;40;20383;31
2024/01/04 04:44:49;;;;;;;2.70;1.30;;;;;;;8.89;93.87;97786.31;7160006;40;20247;31
2024/01/04 04:50:26;;;;;;;3.13;1.40;;;;;;;8.88;94.76;97798.06;7174679;40;20243;31
2024/01/04 04:56:02;;;;;;;3.00;1.20;;;;;;;8.87;94.84;97791.03;7158526;40;20263;31
2024/01/04 05:01:37;;;;;;;3.60;1.23;;;;;;;8.84;95.02;97806.69;7230657;40;20316;31
2024/01/04 05:07:13;;;;;;;3.67;1.30;;;;;;;8.85;94.95;97811.88;7236139;40;20316;31
2024/01/04 05:12:33;;;;;;;4.57;1.13;;;;;;;8.87;95.09;97817.88;7249660;40;20262;31
2024/01/04 05:17:54;;;;;;;4.00;1.80;;;;;;;8.87;95.31;97815.19;7188834;40;20353;31
2024/01/04 05:23:30;;;;;;;4.25;1.65;;;;;;;8.81;94.85;97829.41;7186009;40;20239;31
2024/01/04 05:29:05;;;;;;;4.93;1.73;;;;;;;8.85;95.12;97833.38;7221937;40;20376;31
2024/01/04 05:34:25;;;;;;;8.00;1.70;;;;;;;8.84;95.24;97855.88;7202907;40;20308;31
2024/01/04 05:40:00;;;;;;;6.25;1.65;;;;;;;8.80;94.99;97853.78;7211055;40;20256;31
2024/01/04 05:50:40;;;;;;;5.95;1.80;;;;;;;8.83;94.05;97866.81;7251142;39;20256;31
2024/01/04 06:01:18;;;;;;;7.90;1.95;;;;;;;8.77;94.59;97881.84;7288855;39;21358;31
2024/01/04 06:06:54;;;;;;;6.83;1.57;;;;;;;8.76;94.62;97888.25;7299290;39;20395;31
2024/01/04 06:12:29;;;;;;;4.65;1.50;;;;;;;8.77;94.27;97902.50;7242429;40;20245;31
2024/01/04 06:18:05;;;;;;;2.07;1.43;;;;;;;8.77;94.22;97924.84;7275830;39;20276;31
2024/01/04 06:28:29;;;;;;;4.05;1.40;;;;;;;8.78;94.48;97934.53;7193652;40;21365;31
2024/01/04 06:34:06;;;;;;;3.75;1.25;;;;;;;8.78;93.63;97960.56;7214784;40;20335;31
2024/01/04 06:39:28;;;;;;;2.70;1.20;;;;;;;8.79;93.01;97989.09;7262060;39;21344;31
2024/01/04 06:44:48;;;;;;;2.70;1.20;;;;;;;8.81;93.30;98003.19;7316815;39;20248;31
2024/01/04 06:50:25;;;;;;;3.57;1.30;;;;;;;8.77;93.43;98037.66;7295296;39;20397;31
2024/01/04 07:01:00;;;;;;;4.05;1.40;;;;;;;8.76;93.57;98040.53;7235657;40;20299;31
2024/01/04 07:06:36;;;;;;;3.93;1.27;;;;;;;8.79;93.08;98057.09;6978716;40;20336;31
2024/01/04 07:12:11;;;;;;;5.20;2.05;;;;;;;8.78;92.93;98082.28;7201242;40;20274;31
2024/01/04 07:22:52;;;;;;;6.93;2.05;;;;;;;8.76;92.40;98100.47;7213234;40;21332;31
2024/01/04 07:28:08;;;;;;;3.90;1.50;;;;;;;8.81;92.63;98111.50;7231802;40;20315;31
2024/01/04 07:33:29;;;;;;;9.32;2.05;;;;;;;8.82;92.28;98115.03;7258471;40;20386;31
2024/01/04 07:39:06;;;;;;;6.77;1.97;;;;;;;8.81;92.12;98121.41;7202952;40;20246;31
2024/01/04 07:44:26;;;;;;;7.55;2.10;;;;;;;8.82;91.34;98133.84;7169798;40;20247;31
2024/01/04 07:49:47;;;;;;;8.10;2.20;;;;;;;8.78;90.00;98146.78;7232115;40;20385;31
2024/01/04 07:55:23;;;;;;;9.03;2.47;;;;;;;8.75;89.30;98130.19;7240279;39;20241;31
2024/01/04 08:00:55;;;;;;;7.80;1.93;;;;;;;8.80;89.28;98154.66;7224288;40;20350;31
2024/01/04 08:06:31;;;;;;;7.63;2.07;;;;;;;8.77;88.76;98177.38;7218210;40;20270;31
2024/01/04 08:12:09;;;;;;;8.70;2.77;;;;;;;8.76;88.53;98172.16;7222444;40;20304;31
2024/01/04 08:17:28;;;;;;;7.30;2.20;;;;;;;8.80;88.07;98178.84;7226162;40;20242;31
2024/01/04 08:22:48;;;;;;;8.43;2.53;;;;;;;8.81;87.96;98197.47;7191051;40;20376;31
2024/01/04 08:28:23;;;;;;;8.87;3.70;;;;;;;8.79;87.82;98187.91;7207887;40;20245;31
2024/01/04 08:33:41;;;;;;;11.80;4.60;;;;;;;8.83;86.93;98171.25;7230628;40;20458;31
2024/01/04 08:39:15;;;;;;;15.60;2.90;;;;;;;8.81;87.70;98189.41;7265762;40;20365;31
2024/01/04 08:44:52;;;;;;;7.73;2.20;;;;;;;8.82;88.13;98191.06;7257101;40;20257;31
2024/01/04 08:55:20;;;;;;;9.20;2.50;;;;;;;8.85;88.76;98193.41;7282104;39;20426;31
2024/01/04 09:01:09;;;;;;;10.75;2.25;;;;;;;8.84;88.12;98196.28;7244397;40;21329;31
2024/01/04 09:06:31;;;;;;;12.55;2.75;;;;;;;8.86;87.65;98191.56;7233528;40;20299;31
2024/01/04 09:11:50;;;;;;;10.70;2.25;;;;;;;8.93;87.36;98219.38;7238485;40;20242;31
2024/01/04 09:17:25;;;;;;;10.43;1.87;;;;;;;8.97;87.18;98232.28;7245435;40;20405;31
2024/01/04 09:28:04;;;;;;;13.97;2.90;;;;;;;9.02;86.51;98261.31;7257506;39;20269;31
2024/01/04 09:33:40;;;;;;;8.57;2.33;;;;;;;9.02;86.82;98262.13;7253431;40;20383;31
2024/01/04 09:39:17;;;;;;;7.87;2.40;;;;;;;9.03;86.08;98258.44;7209895;40;20247;31
2024/01/04 09:44:51;;;;;;;6.15;1.90;;;;;;;9.03;86.13;98268.34;7218727;40;20257;31
2024/01/04 09:50:28;;;;;;;13.30;2.50;;;;;;;9.09;85.99;98266.78;7216853;40;20304;31
2024/01/04 09:56:04;;;;;;;8.03;2.30;;;;;;;9.15;86.12;98282.19;7219763;40;20237;31
2024/01/04 10:01:40;;;;;;;7.50;2.30;;;;;;;9.16;85.68;98297.31;7195814;40;20349;31
2024/01/04 10:07:13;;;;;;;9.17;2.40;;;;;;;9.23;86.16;98279.44;7205200;40;21345;31
2024/01/04 10:12:34;;;;;;;4.55;1.90;;;;;;;9.32;85.06;98297.19;7227668;40;20403;31
2024/01/04 10:18:12;;;;;;;7.73;2.07;;;;;;;9.34;84.54;98311.28;7213961;40;20246;31
2024/01/04 10:23:47;;;;;;;8.60;2.07;;;;;;;9.32;84.40;98306.09;7226162;40;20311;31
2024/01/04 10:29:08;;;;;;;20.75;4.65;;;;;;;9.39;84.35;98308.91;7201197;40;20257;31
2024/01/04 10:34:43;;;;;;;6.80;2.25;;;;;;;9.42;84.49;98298.63;7180024;40;20302;31
2024/01/04 10:40:21;;;;;;;4.93;1.77;;;;;;;9.47;83.87;98303.44;7202232;40;20392;31
2024/01/04 10:50:46;;;;;;;9.50;2.40;;;;;;;9.64;83.08;98304.97;7275591;40;20268;31
2024/01/04 10:56:23;;;;;;;10.47;4.03;;;;;;;9.69;81.87;98310.63;7275431;39;20317;31
2024/01/04 11:01:56;;;;;;;8.85;2.55;;;;;;;9.78;82.49;98296.09;7279578;40;20349;31
2024/01/04 11:07:32;;;;;;;8.93;3.37;;;;;;;9.86;81.53;98312.16;7258473;40;20393;31
2024/01/04 11:18:13;;;;;;;7.97;2.30;;;;;;;10.01;81.43;98296.00;7239247;40;21545;31
2024/01/04 11:23:53;;;;;;;3.40;1.60;;;;;;;9.99;80.53;98289.97;7230669;40;20250;31
2024/01/04 11:29:27;;;;;;;6.37;1.80;;;;;;;9.84;80.19;98281.88;7238866;40;20228;31
2024/01/04 11:35:04;;;;;;;7.93;2.50;;;;;;;9.80;79.96;98299.41;7268416;40;20245;31
2024/01/04 11:40:40;;;;;;;8.73;2.37;;;;;;;9.92;80.41;98297.09;7248958;39;20312;31
2024/01/04 11:46:00;;;;;;;4.90;2.20;;;;;;;10.01;80.61;98295.16;7218942;40;20299;31
2024/01/04 11:51:46;;;;;;;6.95;1.90;;;;;;;10.07;80.35;98278.28;7236621;40;20304;31
2024/01/04 11:57:31;;;;;;;9.75;2.15;;;;;;;10.10;79.04;98284.09;7172744;40;20391;31
2024/01/04 12:03:06;;;;;;;8.20;2.20;;;;;;;10.22;78.84;98287.22;7237708;40;20257;31
2024/01/04 12:08:40;;;;;;;7.30;1.60;;;;;;;10.27;77.53;98265.94;7225186;40;20267;31
2024/01/04 12:19:20;;;;;;;7.70;2.47;;;;;;;10.45;77.74;98276.31;7254412;40;20411;31
2024/01/04 12:24:57;;;;;;;6.30;1.60;;;;;;;10.31;76.86;98265.38;7200493;40;20250;31
2024/01/04 12:30:32;;;;;;;10.35;2.25;;;;;;;10.14;77.12;98252.25;7295532;39;20258;31
2024/01/04 12:36:15;;;;;;;7.40;1.90;;;;;;;10.20;77.05;98278.47;7257202;40;20539;31
2024/01/04 12:41:48;;;;;;;10.75;1.80;;;;;;;10.17;75.83;98276.16;7298670;39;20262;31
2024/01/04 12:47:11;;;;;;;5.20;1.80;;;;;;;10.17;76.74;98268.94;7235066;40;20294;31
2024/01/04 12:57:50;;;;;;;4.60;1.67;;;;;;;10.16;75.65;98272.63;7275218;40;20422;31
2024/01/04 13:03:10;;;;;;;6.50;2.10;;;;;;;10.16;76.84;98288.78;7319587;39;20239;31
2024/01/04 13:08:46;;;;;;;8.07;2.20;;;;;;;10.05;77.52;98280.31;7300956;39;20226;31
2024/01/04 13:14:22;;;;;;;8.07;2.83;;;;;;;9.99;78.39;98272.97;7276226;39;20289;31
2024/01/04 13:19:43;;;;;;;9.27;2.30;;;;;;;10.02;78.82;98278.81;7226408;40;20257;31
2024/01/04 13:25:04;;;;;;;7.13;2.50;;;;;;;10.09;79.80;98287.00;7188026;40;20242;31
2024/01/04 13:30:40;;;;;;;10.50;2.70;;;;;;;10.07;79.32;98283.66;7227121;40;20316;31
2024/01/04 13:36:16;;;;;;;10.03;2.40;;;;;;;10.05;78.93;98286.53;7201314;40;20261;31
2024/01/04 13:41:35;;;;;;;10.80;2.30;;;;;;;10.02;78.12;98308.44;7227024;40;20313;31
2024/01/04 13:47:12;;;;;;;8.00;2.20;;;;;;;9.90;77.86;98305.38;7205735;40;20253;31
2024/01/04 13:52:29;;;;;;;7.47;2.30;;;;;;;9.95;78.45;98310.22;7203907;40;20276;31
2024/01/04 13:58:05;;;;;;;9.20;2.60;;;;;;;9.83;79.28;98309.81;7033956;40;21176;31
2024/01/04 14:08:45;;;;;;;8.00;2.25;;;;;;;9.66;79.98;98327.13;7183843;40;20427;31
2024/01/04 14:19:22;;;;;;;5.90;2.30;;;;;;;9.64;81.05;98309.50;7242172;39;20261;31
2024/01/04 14:25:00;;;;;;;9.30;2.23;;;;;;;9.59;80.89;98323.50;7197373;40;20274;31
2024/01/04 14:35:37;;;;;;;9.70;2.80;;;;;;;9.49;83.56;98330.97;7275509;40;21360;31
2024/01/04 14:41:10;;;;;;;7.30;2.00;;;;;;;9.36;84.16;98315.47;7291897;39;20386;31
2024/01/04 14:46:31;;;;;;;9.23;3.80;;;;;;;9.30;84.78;98318.06;7290238;39;21305;31
2024/01/04 14:51:51;;;;;;;10.00;3.25;;;;;;;9.29;84.94;98317.22;7276633;39;20261;31
2024/01/04 14:57:27;;;;;;;9.90;4.40;;;;;;;9.24;85.18;98335.72;7253196;40;20242;31
2024/01/04 15:03:03;;;;;;;9.37;4.60;;;;;;;9.24;85.31;98324.13;7221961;40;20300;31
2024/01/04 15:08:26;;;;;;;9.77;3.00;;;;;;;9.21;85.10;98328.03;7192499;40;20241;31
2024/01/04 15:14:00;;;;;;;8.80;3.00;;;;;;;9.14;85.16;98324.37;7231587;40;20242;31
2024/01/04 15:19:34;;;;;;;6.60;2.70;;;;;;;9.16;85.56;98321.50;7167708;40;20392;31
2024/01/04 15:24:56;;;;;;;9.00;2.40;;;;;;;9.18;85.39;98330.22;7138734;40;20482;31
2024/01/04 15:30:31;;;;;;;4.77;1.93;;;;;;;9.12;85.79;98336.31;7196175;40;20231;31
2024/01/04 15:36:06;;;;;;;7.47;2.20;;;;;;;9.08;86.25;98326.94;7217226;40;20247;31
2024/01/04 15:41:24;;;;;;;9.93;2.60;;;;;;;9.07;86.97;98330.66;7236576;40;21366;31
2024/01/04 15:47:02;;;;;;;12.47;2.73;;;;;;;9.04;87.10;98329.13;7277569;40;20260;31
2024/01/04 15:52:35;;;;;;;9.95;2.70;;;;;;;9.06;87.22;98343.25;7234652;40;21410;31
2024/01/04 15:58:11;;;;;;;13.00;2.50;;;;;;;9.04;87.81;98343.41;7265114;40;20240;31
2024/01/04 16:03:46;;;;;;;8.87;2.50;;;;;;;9.04;87.91;98339.87;7187989;40;20370;31
2024/01/04 16:09:22;;;;;;;6.95;2.30;;;;;;;9.08;87.60;98341.22;7196036;40;20254;31
2024/01/04 16:14:42;;;;;;;10.00;2.50;;;;;;;9.05;88.29;98333.50;7162991;40;20377;31
2024/01/04 16:20:16;;;;;;;6.87;1.90;;;;;;;8.99;87.59;98318.91;7220496;40;20399;31
2024/01/04 16:25:51;;;;;;;7.15;2.45;;;;;;;9.00;87.79;98312.53;7254177;40;20246;31
2024/01/04 16:31:25;;;;;;;7.25;2.35;;;;;;;9.02;87.88;98309.69;7236592;40;20816;31
2024/01/04 16:36:59;;;;;;;16.23;5.77;;;;;;;9.00;87.75;98300.94;7198597;40;20350;31
2024/01/04 16:42:35;;;;;;;9.57;2.93;;;;;;;8.95;88.25;98303.34;7166967;40;20262;31
2024/01/04 16:47:55;;;;;;;8.47;2.07;;;;;;;8.99;88.00;98304.66;7178895;40;20259;31
2024/01/04 16:53:32;;;;;;;9.13;2.37;;;;;;;8.95;88.21;98297.97;7179650;40;20247;31
2024/01/04 16:59:07;;;;;;;10.07;2.60;;;;;;;8.96;87.63;98292.41;7164972;40;20353;31
2024/01/04 17:04:27;;;;;;;8.87;2.87;;;;;;;8.97;88.46;98287.88;7167020;40;20350;31
2024/01/04 17:10:04;;;;;;;8.47;3.47;;;;;;;8.91;88.17;98292.09;7176760;40;20246;31
2024/01/04 17:15:24;;;;;;;12.87;4.27;;;;;;;8.90;88.68;98285.06;7150286;40;20247;31
2024/01/04 17:20:44;;;;;;;18.95;7.15;;;;;;;8.91;88.73;98284.03;7209494;40;20245;31
2024/01/04 17:26:21;;;;;;;8.90;4.25;;;;;;;8.85;88.41;98282.09;7234680;40;20267;31
2024/01/04 17:31:41;;;;;;;15.75;5.05;;;;;;;8.87;88.57;98273.81;7213998;40;20324;31
2024/01/04 17:37:16;;;;;;;15.70;6.05;;;;;;;8.87;88.23;98288.09;7245773;40;20398;31
2024/01/04 17:42:52;;;;;;;15.00;5.90;;;;;;;8.85;88.55;98278.56;7249623;40;20244;31
2024/01/04 17:48:27;;;;;;;18.85;6.40;;;;;;;8.86;88.55;98283.72;7197654;40;20239;31
2024/01/04 17:53:47;;;;;;;16.63;5.00;;;;;;;8.87;89.49;98271.97;7162951;40;20388;31
2024/01/04 17:59:24;;;;;;;18.50;8.10;;;;;;;8.87;88.54;98273.81;7175609;40;20258;31
2024/01/04 18:04:59;;;;;;;14.90;8.50;;;;;;;8.91;88.87;98273.28;7243986;40;20495;31
2024/01/04 18:10:31;;;;;;;20.90;10.27;;;;;;;8.88;88.72;98281.72;7245238;40;20307;31
2024/01/04 18:21:08;;;;;;;20.90;5.53;;;;;;;8.91;88.68;98265.22;7255901;40;21479;31
2024/01/04 18:26:28;;;;;;;10.90;4.35;;;;;;;8.88;88.75;98275.50;7246036;40;20258;31
2024/01/04 18:37:06;;;;;;;10.68;3.18;;;;;;;8.82;88.58;98277.03;7258528;40;20246;31
2024/01/04 18:42:24;;;;;;;15.67;4.90;;;;;;;8.83;88.43;98285.94;7209111;40;20360;31
2024/01/04 18:47:46;;;;;;;8.45;3.75;;;;;;;8.76;87.97;98283.16;7290832;39;20240;31
2024/01/04 18:53:20;;;;;;;12.00;4.23;;;;;;;8.68;88.49;98277.84;7322486;39;20268;31
2024/01/04 18:58:40;;;;;;;8.87;3.50;;;;;;;8.67;88.80;98281.53;7235749;40;20292;31
2024/01/04 19:04:01;;;;;;;9.25;3.85;;;;;;;8.73;89.15;98282.69;7261621;39;20241;31
2024/01/04 19:09:38;;;;;;;11.05;4.50;;;;;;;8.73;88.86;98278.09;7275509;39;20311;31
2024/01/04 19:14:55;;;;;;;10.00;3.80;;;;;;;8.78;89.05;98269.50;7255378;40;20261;31
2024/01/04 19:20:16;;;;;;;11.35;3.45;;;;;;;8.79;88.64;98250.53;7309282;39;20470;31
2024/01/04 19:25:50;;;;;;;8.67;3.17;;;;;;;8.78;88.84;98246.19;7296692;39;20312;31
2024/01/04 19:36:30;;;;;;;9.60;3.70;;;;;;;8.73;88.39;98243.19;7257990;40;20325;31
2024/01/04 19:42:06;;;;;;;7.90;3.00;;;;;;;8.64;88.82;98240.75;7244157;40;20300;31
2024/01/04 19:47:41;;;;;;;10.53;2.73;;;;;;;8.63;89.15;98237.22;7232388;40;20277;31
2024/01/04 19:58:16;;;;;;;9.15;3.80;;;;;;;8.58;88.75;98247.66;7235712;40;21296;31
2024/01/04 20:08:40;;;;;;;12.30;5.30;;;;;;;8.59;88.86;98249.34;7274490;39;21461;31
2024/01/04 20:14:16;;;;;;;14.90;5.20;;;;;;;8.55;89.58;98231.91;7300205;40;20261;31
2024/01/04 20:19:51;;;;;;;10.90;7.05;;;;;;;8.51;89.31;98215.31;7281963;40;20242;31
2024/01/04 20:25:11;;;;;;;12.03;4.67;;;;;;;8.47;88.28;98227.41;7276705;40;20390;31
2024/01/04 20:30:48;;;;;;;7.53;4.30;;;;;;;8.36;88.91;98221.62;7268646;40;20242;31
2024/01/04 20:36:09;;;;;;;10.15;4.00;;;;;;;8.31;88.61;98210.56;7266917;39;20293;31
2024/01/04 20:41:41;;;;;;;8.83;3.83;;;;;;;8.25;88.82;98208.56;7218221;40;20315;31
2024/01/04 20:52:22;;;;;;;13.37;4.70;;;;;;;8.20;89.27;98206.41;7215263;40;20273;31
2024/01/04 21:02:47;;;;;;;11.50;3.40;;;;;;;8.21;89.72;98212.59;7293042;39;20245;31
2024/01/04 21:08:18;;;;;;;8.27;3.35;;;;;;;8.19;89.40;98212.78;7134427;39;21285;31
2024/01/04 21:13:40;;;;;;;9.07;3.20;;;;;;;8.28;89.47;98210.91;7256759;40;20245;31
2024/01/04 21:19:00;;;;;;;8.60;3.03;;;;;;;8.30;89.29;98201.69;7220214;40;20241;31
2024/01/04 21:24:36;;;;;;;11.90;3.10;;;;;;;8.27;88.24;98201.16;7257590;40;20245;31
2024/01/04 21:30:11;;;;;;;9.60;2.90;;;;;;;8.25;89.11;98187.09;7201857;40;20308;31
2024/01/04 21:35:48;;;;;;;8.20;3.40;;;;;;;8.20;88.41;98184.09;7235332;40;20265;31
2024/01/04 21:41:19;;;;;;;8.27;3.77;;;;;;;8.10;88.98;98181.63;7211487;40;20418;31
2024/01/04 21:46:40;;;;;;;8.20;3.65;;;;;;;8.02;88.73;98177.16;7255087;40;20233;31
2024/01/04 21:52:00;;;;;;;9.90;3.53;;;;;;;7.99;88.97;98166.75;7268784;40;20390;31
2024/01/04 21:57:34;;;;;;;11.90;4.10;;;;;;;7.96;89.12;98164.44;7235575;40;20258;31
2024/01/04 22:03:09;;;;;;;9.93;4.60;;;;;;;7.97;89.33;98162.59;7284389;39;20341;31
2024/01/04 22:08:30;;;;;;;10.00;4.40;;;;;;;7.84;89.26;98159.62;7272245;39;20273;31
2024/01/04 22:14:05;;;;;;;12.35;5.70;;;;;;;7.67;88.46;98142.78;7265169;39;20252;31
2024/01/04 22:19:23;;;;;;;14.45;5.90;;;;;;;7.64;89.32;98161.88;7185139;40;20275;31
2024/01/04 22:24:45;;;;;;;10.15;4.90;;;;;;;7.65;89.34;98155.53;7193022;40;20390;31
2024/01/04 22:30:19;;;;;;;12.17;5.27;;;;;;;7.60;88.66;98157.88;7226475;40;20351;31
2024/01/04 22:35:40;;;;;;;8.33;4.53;;;;;;;7.54;88.89;98155.91;7180998;40;20318;31
2024/01/04 22:41:01;;;;;;;10.33;4.50;;;;;;;7.58;89.26;98147.34;7250080;39;20349;31
2024/01/04 22:46:38;;;;;;;8.95;3.95;;;;;;;7.46;88.69;98134.50;7301259;39;20256;31
2024/01/04 22:51:58;;;;;;;32.20;20.97;;;;;;;7.40;89.15;98130.66;7263616;40;20257;31
2024/01/04 22:57:19;;;;;;;8.90;3.53;;;;;;;7.16;89.30;98131.56;7280676;40;20293;31
2024/01/04 23:02:55;;;;;;;9.95;4.20;;;;;;;7.07;89.69;98123.69;7306701;39;20329;31
2024/01/04 23:08:30;;;;;;;14.05;4.35;;;;;;;7.19;89.77;98108.94;7296682;39;20440;31
2024/01/04 23:14:05;;;;;;;9.75;3.60;;;;;;;7.01;89.17;98094.94;7215994;40;20384;31
2024/01/04 23:19:41;;;;;;;8.80;3.00;;;;;;;6.89;89.98;98081.03;7220788;40;20356;31
2024/01/04 23:24:57;;;;;;;8.30;3.10;;;;;;;6.80;89.99;98082.09;7177057;40;20255;31
2024/01/04 23:30:33;;;;;;;9.10;3.10;;;;;;;6.87;90.67;98066.16;7198776;40;20261;31
2024/01/04 23:36:10;;;;;;;9.30;3.40;;;;;;;6.95;89.40;98064.31;7235932;40;20240;31
2024/01/04 23:41:45;;;;;;;7.20;3.20;;;;;;;7.02;89.87;98051.88;7216018;40;20345;31
2024/01/04 23:52:23;;;;;;;13.80;7.90;;;;;;;6.91;88.88;98052.25;7190649;40;21392;31
2024/01/04 23:57:43;;;;;;;7.33;3.00;;;;;;;6.84;89.82;98050.44;7186013;40;20337;31
